Main page
METAR-TAF:

METAR-TAF

Airports :

Tambacounda Airport

Tambacounda, Senegal

latitude: 13-46N, longitude: 013-41W, elevation: 49 m

Current weather observation

The report was made 34 minutes ago, at 18:00 UTC
Wind 4 kt from the East
Temperature 32°C
Humidity 63%
Pressure 1010 hPa
Visibility 10 km or more
Scattered clouds at a height of 1300 ft
Scattered clouds at a height of 1500 ft, Towering cumulus.

METAR: GOTT 161800Z 08004KT 9999 SCT013 SCT015TCU 32/24 Q1010

Time: 18:34 (18:34 UTC)


TAF: missing

Weather observations and forecasts of more than 4000 airports (METAR and TAF reports).

The available stations are represented by yellow and red dots on the map.

Hover mouse over dot to see the name of the station.

Then click to see weather observations and forecasts.

To change the map : click on the green buttons with a black cross to zoom in, on the green button with a dash to zoom out, or on the green arrows for adjacent maps.


METAR-TAF: